What Cheer, Iowa
Current Conditions -  °F | °C
As of 2:15 AM on Saturday 29 Nov 2014 (Local Time) from KOOA Reporting Station
Clear Clear  
Wind Chill: 25°   Ceiling: Unl
Heat Index: 33°   Visibility: 10mi
Dew Point: 32°   Wind: 10mph
Humidity: 95%   Direction: 150°SSE
Pressure: 29.64"   Gusts: NA
Location:  41.4°N, 92.35°W
Report Text: KOOA 290815Z AUTO 15009KT 10SM CLR 01/00 A2964 RMK AO2 T00051002
Loading
Personal Weather Stations






























Interactive Weather Map New forecast layout! Learn more

10-Day Weather Forecast

Advertisements
Track Severe Weather on mobile